Time;durP1;ratioP1;P1;durP2;ratioP2;P2;SDS_P1;SDS_P2;PMS_P1;PMS_P2;Temp;Humidity;BMP_temperature;BMP_pressure;BME280_temperature;BME280_humidity;BME280_pressure;Samples;Min_cycle;Max_cycle;Signal;HPM_P1;HPM_P2
2020/12/24 00:00:39;;;;;;;9.70;2.47;;;9.80;83.00;;;;;;5092904;28;20558;-80
2020/12/24 00:03:05;;;;;;;10.50;2.27;;;9.80;82.90;;;;;;5092017;28;20024;-79
2020/12/24 00:05:30;;;;;;;7.73;2.30;;;9.90;82.90;;;;;;5059358;28;20463;-82
2020/12/24 00:07:56;;;;;;;11.40;2.03;;;9.90;82.80;;;;;;5091980;28;20020;-79
2020/12/24 00:10:22;;;;;;;9.07;2.23;;;9.90;82.70;;;;;;5091049;28;20115;-80
2020/12/24 00:12:47;;;;;;;10.40;2.60;;;9.90;82.60;;;;;;5108278;28;20451;-80
2020/12/24 00:15:13;;;;;;;11.67;2.87;;;9.90;82.50;;;;;;5091191;28;20060;-80
2020/12/24 00:17:40;;;;;;;14.37;2.43;;;9.90;82.20;;;;;;5110719;28;20060;-81
2020/12/24 00:20:06;;;;;;;11.03;2.27;;;9.80;81.80;;;;;;5090619;28;20114;-80
2020/12/24 00:22:32;;;;;;;8.63;1.50;;;9.80;82.40;;;;;;5109587;28;20039;-78
2020/12/24 00:24:58;;;;;;;7.83;1.70;;;9.70;81.70;;;;;;5074975;28;20028;-76
2020/12/24 00:27:24;;;;;;;11.73;1.43;;;9.70;82.10;;;;;;5090815;28;20134;-80
2020/12/24 00:29:50;;;;;;;13.40;1.20;;;9.60;81.60;;;;;;5088574;28;20439;-80
2020/12/24 00:32:16;;;;;;;9.83;1.80;;;9.60;81.60;;;;;;5092398;28;20138;-81
2020/12/24 00:34:41;;;;;;;8.47;1.60;;;9.60;81.60;;;;;;5092435;28;20024;-80
2020/12/24 00:37:07;;;;;;;10.03;2.10;;;9.60;81.40;;;;;;5092030;28;20390;-80
2020/12/24 00:39:32;;;;;;;9.03;1.90;;;9.50;81.80;;;;;;5109893;28;20031;-80
2020/12/24 00:41:58;;;;;;;8.20;1.20;;;9.40;82.20;;;;;;5092369;28;20089;-78
2020/12/24 00:44:24;;;;;;;11.37;2.70;;;9.30;82.20;;;;;;5091353;28;20808;-80
2020/12/24 00:46:50;;;;;;;8.93;1.87;;;9.20;82.50;;;;;;5071117;28;20032;-80
2020/12/24 00:49:16;;;;;;;10.87;2.63;;;9.20;83.00;;;;;;5081817;28;20062;-79
2020/12/24 00:51:41;;;;;;;10.57;1.40;;;9.10;83.30;;;;;;5088443;28;20032;-81
2020/12/24 00:54:07;;;;;;;11.17;1.70;;;9.00;83.60;;;;;;5110109;28;20046;-80
2020/12/24 00:56:33;;;;;;;11.53;2.43;;;8.90;83.80;;;;;;5092628;28;20024;-79
2020/12/24 00:58:59;;;;;;;7.20;1.23;;;8.90;83.90;;;;;;5091305;28;20123;-78
2020/12/24 01:01:24;;;;;;;7.63;1.63;;;8.90;83.90;;;;;;5088571;28;20422;-79
2020/12/24 01:03:50;;;;;;;13.53;2.20;;;9.00;84.00;;;;;;5092064;28;20080;-79
2020/12/24 01:06:16;;;;;;;9.57;1.40;;;8.90;84.00;;;;;;5087577;28;20060;-80
2020/12/24 01:08:41;;;;;;;8.80;1.10;;;8.90;83.80;;;;;;5082007;28;20123;-80
2020/12/24 01:11:07;;;;;;;11.90;1.60;;;8.90;83.40;;;;;;5071827;28;20047;-80
2020/12/24 01:13:32;;;;;;;13.20;1.63;;;8.90;83.70;;;;;;5091603;28;20028;-80
2020/12/24 01:15:59;;;;;;;12.53;1.30;;;9.00;83.70;;;;;;5088300;28;20032;-80
2020/12/24 01:18:24;;;;;;;12.70;1.20;;;9.00;83.50;;;;;;5087427;28;20480;-80
2020/12/24 01:20:50;;;;;;;13.00;2.17;;;9.00;83.40;;;;;;5109458;28;20035;-80
2020/12/24 01:23:15;;;;;;;10.73;1.77;;;9.00;83.50;;;;;;5091671;28;20059;-80
2020/12/24 01:25:41;;;;;;;9.43;1.10;;;9.00;83.00;;;;;;5075127;28;20080;-80
2020/12/24 01:28:07;;;;;;;13.33;1.97;;;9.00;83.20;;;;;;5070620;28;20056;-78
2020/12/24 01:30:32;;;;;;;12.67;1.50;;;9.00;83.40;;;;;;5108378;28;20032;-80
2020/12/24 01:32:58;;;;;;;9.70;1.37;;;8.90;83.60;;;;;;5072565;28;20028;-80
2020/12/24 01:35:24;;;;;;;13.83;1.87;;;8.90;83.60;;;;;;5093307;28;20205;-78
2020/12/24 01:37:49;;;;;;;13.70;1.67;;;8.80;84.00;;;;;;5064464;28;20040;-78
2020/12/24 01:40:15;;;;;;;13.13;1.43;;;8.80;84.20;;;;;;5083707;28;20022;-78
2020/12/24 01:42:41;;;;;;;12.10;1.70;;;8.90;84.40;;;;;;5093851;28;20043;-78
2020/12/24 01:45:07;;;;;;;16.17;1.67;;;8.90;84.40;;;;;;5077830;28;20028;-78
2020/12/24 01:47:33;;;;;;;10.13;1.70;;;8.90;84.50;;;;;;5091516;28;20060;-79
2020/12/24 01:49:58;;;;;;;10.80;1.27;;;8.90;84.60;;;;;;5095655;28;20065;-78
2020/12/24 01:53:11;;;;;;;11.57;1.53;;;8.90;84.10;;;;;;5094807;28;20051;-79
2020/12/24 01:55:36;;;;;;;13.97;1.20;;;9.00;84.10;;;;;;5075827;28;20040;-78
2020/12/24 01:58:02;;;;;;;6.40;1.27;;;9.00;83.80;;;;;;5079132;28;20144;-78
2020/12/24 02:00:28;;;;;;;12.07;1.53;;;9.00;83.70;;;;;;5075555;28;20098;-78
2020/12/24 02:02:53;;;;;;;13.47;1.10;;;9.10;83.80;;;;;;5094863;28;20448;-78
2020/12/24 02:05:19;;;;;;;14.97;1.23;;;9.10;83.50;;;;;;5061244;28;20051;-78
2020/12/24 02:07:45;;;;;;;7.50;1.13;;;9.10;83.20;;;;;;5094942;28;20040;-78
2020/12/24 02:10:10;;;;;;;12.03;1.47;;;9.20;83.20;;;;;;5076507;28;20206;-78
2020/12/24 02:12:36;;;;;;;13.07;1.33;;;9.20;83.30;;;;;;5061187;28;20138;-77
2020/12/24 02:15:02;;;;;;;6.83;1.17;;;9.20;83.80;;;;;;5112153;28;20102;-76
2020/12/24 02:17:27;;;;;;;14.70;1.70;;;9.20;84.20;;;;;;5092496;28;20882;-77
2020/12/24 02:19:53;;;;;;;11.70;1.40;;;9.20;84.60;;;;;;5089988;28;20413;-77
2020/12/24 02:22:19;;;;;;;8.97;1.40;;;9.20;84.90;;;;;;5069653;28;20047;-78
2020/12/24 02:24:44;;;;;;;14.63;1.33;;;9.20;85.20;;;;;;5077499;28;20027;-77
2020/12/24 02:27:11;;;;;;;10.33;1.37;;;9.10;85.30;;;;;;5093509;28;20115;-77
2020/12/24 02:29:37;;;;;;;6.90;1.33;;;9.10;85.50;;;;;;5073853;28;20085;-77
2020/12/24 02:32:03;;;;;;;12.30;1.00;;;9.10;85.90;;;;;;5091907;28;20059;-77
2020/12/24 02:34:29;;;;;;;9.63;1.10;;;9.10;86.00;;;;;;5092407;28;20456;-77
2020/12/24 02:36:54;;;;;;;10.07;1.20;;;9.10;86.00;;;;;;5092797;28;20032;-77
2020/12/24 02:39:20;;;;;;;13.43;1.20;;;9.00;86.20;;;;;;5106574;28;20028;-77
2020/12/24 02:41:45;;;;;;;11.43;1.00;;;9.00;86.30;;;;;;5089489;28;20036;-77
2020/12/24 02:44:11;;;;;;;8.80;1.10;;;9.00;86.60;;;;;;5098518;28;20114;-77
2020/12/24 02:46:39;;;;;;;10.73;1.30;;;9.00;86.70;;;;;;5074314;28;20395;-77
2020/12/24 02:49:05;;;;;;;9.33;1.20;;;9.00;86.80;;;;;;5092929;28;20062;-76
2020/12/24 02:51:31;;;;;;;13.50;1.87;;;9.00;86.90;;;;;;5111925;28;20502;-77
2020/12/24 02:53:56;;;;;;;13.00;1.60;;;9.00;87.20;;;;;;5113152;28;20028;-77
2020/12/24 02:56:22;;;;;;;11.47;1.50;;;9.00;87.20;;;;;;5076533;28;20055;-77
2020/12/24 02:58:48;;;;;;;7.40;1.00;;;9.00;87.10;;;;;;5109786;28;20463;-77
2020/12/24 03:01:13;;;;;;;8.87;1.10;;;9.00;87.10;;;;;;5092873;28;20031;-77
2020/12/24 03:03:39;;;;;;;11.43;1.20;;;8.90;87.20;;;;;;5066590;28;20028;-78
2020/12/24 03:06:04;;;;;;;11.97;1.27;;;8.90;87.10;;;;;;5074155;28;20046;-78
2020/12/24 03:08:30;;;;;;;8.17;0.90;;;8.90;86.90;;;;;;5067329;28;20034;-77
2020/12/24 03:10:56;;;;;;;14.97;1.63;;;8.80;86.80;;;;;;5093713;28;20042;-77
2020/12/24 03:13:21;;;;;;;11.20;1.20;;;8.70;86.80;;;;;;5076617;28;20081;-77
2020/12/24 03:15:47;;;;;;;8.30;0.93;;;8.70;87.00;;;;;;5111184;28;20136;-77
2020/12/24 03:18:14;;;;;;;6.90;0.70;;;8.70;87.00;;;;;;5075016;28;20051;-77
2020/12/24 03:20:40;;;;;;;14.17;1.40;;;8.70;86.90;;;;;;5078055;28;20032;-76
2020/12/24 03:23:06;;;;;;;11.97;1.13;;;8.70;86.90;;;;;;5101528;28;20038;-77
2020/12/24 03:25:31;;;;;;;11.93;1.33;;;8.70;86.70;;;;;;5093940;28;20459;-77
2020/12/24 03:27:57;;;;;;;11.90;1.23;;;8.70;86.90;;;;;;5092658;28;20030;-77
2020/12/24 03:30:23;;;;;;;10.70;1.33;;;8.50;86.70;;;;;;5093453;28;20039;-76
2020/12/24 03:32:48;;;;;;;10.70;1.07;;;8.50;86.80;;;;;;5111738;28;20515;-76
2020/12/24 03:35:14;;;;;;;9.43;1.37;;;8.50;87.10;;;;;;5093131;28;20420;-77
2020/12/24 03:37:40;;;;;;;9.93;1.20;;;8.40;87.00;;;;;;5094381;28;20111;-77
2020/12/24 03:40:05;;;;;;;9.23;1.17;;;8.40;86.80;;;;;;5075091;28;20031;-75
2020/12/24 03:42:31;;;;;;;10.80;1.03;;;8.40;87.00;;;;;;5092798;28;20443;-77
2020/12/24 03:44:57;;;;;;;13.23;1.47;;;8.40;86.80;;;;;;5092868;28;20538;-77
2020/12/24 03:47:22;;;;;;;8.90;1.30;;;8.50;86.60;;;;;;5110316;28;20055;-76
2020/12/24 03:49:48;;;;;;;10.87;1.57;;;8.50;86.70;;;;;;5091319;28;20038;-77
2020/12/24 03:52:13;;;;;;;11.53;0.83;;;8.60;86.60;;;;;;5093001;28;20040;-77
2020/12/24 03:54:39;;;;;;;12.23;1.20;;;8.60;86.40;;;;;;5092702;28;20421;-77
2020/12/24 03:57:05;;;;;;;10.73;0.80;;;8.60;86.40;;;;;;5111292;28;20042;-78
2020/12/24 03:59:30;;;;;;;9.03;1.00;;;8.60;86.20;;;;;;5070310;28;20594;-77
2020/12/24 04:01:56;;;;;;;5.87;1.10;;;8.70;86.30;;;;;;5073995;28;20078;-77
2020/12/24 04:04:21;;;;;;;10.90;1.30;;;8.70;86.20;;;;;;5104958;28;20023;-78
2020/12/24 04:06:47;;;;;;;9.73;1.30;;;8.70;86.30;;;;;;5076148;28;20034;-78
2020/12/24 04:09:13;;;;;;;10.03;1.20;;;8.80;86.60;;;;;;5092034;28;20028;-77
2020/12/24 04:11:38;;;;;;;6.37;0.70;;;8.80;86.70;;;;;;5110923;28;20139;-77
2020/12/24 04:14:04;;;;;;;10.70;1.43;;;8.80;86.90;;;;;;5090478;28;20633;-78
2020/12/24 04:16:30;;;;;;;9.33;0.90;;;8.80;86.70;;;;;;5073684;28;20521;-78
2020/12/24 04:18:55;;;;;;;6.57;0.93;;;8.80;86.90;;;;;;5091137;28;20052;-78
2020/12/24 04:21:21;;;;;;;8.87;1.10;;;8.80;86.70;;;;;;5111223;28;20043;-78
2020/12/24 04:23:47;;;;;;;9.47;1.47;;;8.80;86.80;;;;;;5077958;28;20099;-78
2020/12/24 04:26:20;;;;;;;11.47;1.07;;;8.80;87.00;;;;;;5101171;28;20053;-78
2020/12/24 04:28:46;;;;;;;8.70;1.20;;;8.70;87.20;;;;;;5121668;28;20020;-78
2020/12/24 04:31:12;;;;;;;9.47;0.83;;;8.70;87.30;;;;;;5102058;28;20134;-78
2020/12/24 04:33:38;;;;;;;8.10;1.03;;;8.60;87.40;;;;;;5097335;28;20114;-78
2020/12/24 04:36:04;;;;;;;9.33;0.90;;;8.60;87.70;;;;;;5076956;28;20035;-78
2020/12/24 04:38:30;;;;;;;8.07;1.20;;;8.60;87.70;;;;;;5076505;28;20717;-78
2020/12/24 04:40:59;;;;;;;10.50;0.97;;;8.60;87.70;;;;;;5095503;28;20475;-78
2020/12/24 04:43:29;;;;;;;9.77;0.70;;;8.70;87.80;;;;;;5094060;28;20027;-78
2020/12/24 04:45:55;;;;;;;11.83;1.07;;;8.70;87.30;;;;;;5092379;28;20031;-78
2020/12/24 04:48:22;;;;;;;8.13;0.97;;;8.70;87.30;;;;;;5091702;28;20031;-77
2020/12/24 04:50:50;;;;;;;10.37;1.07;;;8.70;87.40;;;;;;5105746;28;20118;-77
2020/12/24 04:53:16;;;;;;;6.73;1.03;;;8.70;87.50;;;;;;5110321;28;20019;-78
2020/12/24 04:55:42;;;;;;;7.17;1.00;;;8.70;87.40;;;;;;5109632;28;20034;-78
2020/12/24 04:58:10;;;;;;;10.63;0.97;;;8.70;87.40;;;;;;5092948;28;20476;-78
2020/12/24 05:00:37;;;;;;;13.37;0.90;;;8.70;87.30;;;;;;5073144;28;20063;-78
2020/12/24 05:03:09;;;;;;;6.93;1.00;;;8.70;87.20;;;;;;5110241;28;20036;-78
2020/12/24 05:05:37;;;;;;;9.23;0.80;;;8.70;87.00;;;;;;5089959;28;20028;-78
2020/12/24 05:08:05;;;;;;;9.53;0.77;;;8.70;86.80;;;;;;5101046;28;20051;-79
2020/12/24 05:10:32;;;;;;;11.80;1.00;;;8.70;86.80;;;;;;5095859;28;20031;-78
2020/12/24 05:12:59;;;;;;;6.57;0.70;;;8.80;86.90;;;;;;5114622;28;20055;-78
2020/12/24 05:15:29;;;;;;;8.60;0.60;;;8.80;87.00;;;;;;5095986;28;20027;-78
2020/12/24 05:18:18;;;;;;;7.47;0.63;;;8.80;87.00;;;;;;5113293;28;20043;-78
2020/12/24 05:20:44;;;;;;;8.30;0.80;;;8.90;87.10;;;;;;5108941;28;20032;-78
2020/12/24 05:23:15;;;;;;;9.43;0.87;;;8.80;86.90;;;;;;5095162;28;20408;-78
2020/12/24 05:25:42;;;;;;;11.10;1.07;;;8.80;86.80;;;;;;5096652;28;20463;-79
2020/12/24 05:28:08;;;;;;;7.33;1.23;;;8.80;86.80;;;;;;5086140;28;20024;-77
2020/12/24 05:30:35;;;;;;;4.20;0.50;;;8.80;86.90;;;;;;5086425;28;20666;-78
2020/12/24 05:33:01;;;;;;;9.03;0.97;;;8.80;86.90;;;;;;5114293;28;20073;-78
2020/12/24 05:35:28;;;;;;;13.60;1.10;;;8.80;86.90;;;;;;5095747;28;20027;-79
2020/12/24 05:37:54;;;;;;;10.47;0.63;;;8.80;87.20;;;;;;5078847;28;20430;-77
2020/12/24 05:40:22;;;;;;;10.20;0.90;;;8.80;87.10;;;;;;5113733;28;20030;-77
2020/12/24 05:42:59;;;;;;;12.87;0.93;;;8.70;87.10;;;;;;5113085;28;20501;-78
2020/12/24 05:45:32;;;;;;;7.07;0.50;;;8.70;87.30;;;;;;5113590;28;20031;-78
2020/12/24 05:48:08;;;;;;;11.50;0.98;;;8.70;87.40;;;;;;5075271;28;20157;-78
2020/12/24 05:50:34;;;;;;;6.63;0.60;;;8.70;87.60;;;;;;5069152;28;20137;-78
2020/12/24 05:53:19;;;;;;;8.40;0.73;;;8.60;87.80;;;;;;5112814;28;20039;-78
2020/12/24 05:55:45;;;;;;;5.90;0.90;;;8.60;88.00;;;;;;5096342;28;20028;-78
2020/12/24 05:58:11;;;;;;;7.27;0.70;;;8.60;88.20;;;;;;5113743;28;20038;-78
2020/12/24 06:00:39;;;;;;;6.83;1.00;;;8.60;88.30;;;;;;5113178;28;20098;-78
2020/12/24 06:03:19;;;;;;;7.30;0.83;;;8.60;88.50;;;;;;5085871;28;20024;-78
2020/12/24 06:06:01;;;;;;;6.40;0.70;;;8.50;88.70;;;;;;5075562;28;20035;-78
2020/12/24 06:08:30;;;;;;;5.85;0.80;;;8.40;89.00;;;;;;5082724;28;20016;-78
2020/12/24 06:11:05;;;;;;;7.83;0.80;;;8.40;89.10;;;;;;5113245;28;20040;-78
2020/12/24 06:13:45;;;;;;;7.90;0.63;;;8.30;89.30;;;;;;5093985;28;20062;-78
2020/12/24 06:16:14;;;;;;;5.53;0.60;;;8.20;90.00;;;;;;5095713;28;20390;-78
2020/12/24 06:18:42;;;;;;;6.27;0.70;;;8.20;89.80;;;;;;5070143;28;20060;-77
2020/12/24 06:21:28;;;;;;;12.57;1.57;;;8.20;89.90;;;;;;5067306;28;20037;-78
2020/12/24 06:23:58;;;;;;;7.77;0.70;;;8.20;90.00;;;;;;5073486;28;20028;-78
2020/12/24 06:26:39;;;;;;;8.70;0.70;;;8.10;90.00;;;;;;5072352;28;20408;-78
2020/12/24 06:29:04;;;;;;;6.10;0.60;;;8.10;90.00;;;;;;5073674;28;20108;-77
2020/12/24 06:31:32;;;;;;;6.60;0.50;;;8.10;90.00;;;;;;5068296;28;20123;-79
2020/12/24 06:33:58;;;;;;;5.37;0.63;;;8.10;90.10;;;;;;5072277;28;20477;-78
2020/12/24 06:36:35;;;;;;;6.70;0.80;;;8.20;90.10;;;;;;5069120;28;20043;-78
2020/12/24 06:39:01;;;;;;;7.23;0.77;;;8.30;90.20;;;;;;5066457;28;20155;-78
2020/12/24 06:41:29;;;;;;;8.07;0.70;;;8.30;90.20;;;;;;5042297;28;20056;-79
2020/12/24 06:43:56;;;;;;;5.30;0.60;;;8.40;90.20;;;;;;5064271;28;20032;-77
2020/12/24 06:46:22;;;;;;;6.00;0.70;;;8.40;90.20;;;;;;5064643;28;20025;-77
2020/12/24 06:49:05;;;;;;;4.23;0.70;;;8.50;90.30;;;;;;5068459;28;20033;-78
2020/12/24 06:51:50;;;;;;;9.55;0.80;;;8.50;90.30;;;;;;5070143;28;20094;-79
2020/12/24 06:54:22;;;;;;;6.07;0.53;;;8.60;90.30;;;;;;5069154;28;20024;-78
2020/12/24 06:56:48;;;;;;;9.27;0.85;;;8.60;90.20;;;;;;5074707;28;20048;-78
2020/12/24 06:59:21;;;;;;;7.73;1.07;;;8.60;90.20;;;;;;5071924;28;20059;-78
2020/12/24 07:02:01;;;;;;;7.43;1.17;;;8.60;90.30;;;;;;5072089;28;20041;-78
2020/12/24 07:04:38;;;;;;;8.60;0.90;;;8.60;90.30;;;;;;5083832;28;20035;-78
2020/12/24 07:07:04;;;;;;;7.03;1.17;;;8.70;90.20;;;;;;5071456;28;20507;-79
2020/12/24 07:09:32;;;;;;;5.63;0.90;;;8.70;90.20;;;;;;5053212;28;20047;-77
2020/12/24 07:12:01;;;;;;;7.37;1.07;;;8.70;90.20;;;;;;5070171;28;20036;-79
2020/12/24 07:14:31;;;;;;;5.43;0.90;;;8.70;90.10;;;;;;5069491;28;20029;-79
2020/12/24 07:17:14;;;;;;;10.40;1.63;;;8.70;90.10;;;;;;5066477;28;20025;-79
2020/12/24 07:19:44;;;;;;;4.47;1.02;;;8.70;90.10;;;;;;5104365;28;20161;-79
2020/12/24 07:22:14;;;;;;;5.07;1.27;;;8.70;90.00;;;;;;5085829;28;20035;-78
2020/12/24 07:24:39;;;;;;;7.53;1.90;;;8.70;90.00;;;;;;5071285;28;20021;-78
2020/12/24 07:27:06;;;;;;;7.03;1.63;;;8.80;90.10;;;;;;5078492;28;20048;-78
2020/12/24 07:29:34;;;;;;;7.03;1.40;;;8.80;90.00;;;;;;5088712;28;20478;-79
2020/12/24 07:32:05;;;;;;;9.80;1.47;;;8.80;90.00;;;;;;5111411;28;20502;-80
2020/12/24 07:34:34;;;;;;;11.43;1.30;;;8.80;89.90;;;;;;5089824;28;20024;-79
2020/12/24 07:37:00;;;;;;;5.60;0.90;;;8.70;89.40;;;;;;5098921;28;20028;-79
2020/12/24 07:39:26;;;;;;;1.80;0.30;;;8.20;87.30;;;;;;5089116;28;20539;-78
2020/12/24 07:41:51;;;;;;;1.00;0.40;;;7.50;86.60;;;;;;5082923;28;20028;-79
2020/12/24 07:44:19;;;;;;;5.57;3.87;;;7.00;87.90;;;;;;5075806;28;20028;-78
2020/12/24 07:46:46;;;;;;;3.80;2.40;;;6.60;89.20;;;;;;5083768;28;20781;-78
2020/12/24 07:49:12;;;;;;;2.33;1.40;;;6.50;90.10;;;;;;5083399;28;20395;-78
2020/12/24 07:51:38;;;;;;;5.90;4.53;;;6.50;90.40;;;;;;5092297;28;20038;-78
2020/12/24 07:54:17;;;;;;;2.87;1.93;;;6.30;90.40;;;;;;5113003;28;20032;-78
2020/12/24 07:56:45;;;;;;;10.50;6.37;;;6.20;90.40;;;;;;5091687;28;20024;-79
2020/12/24 07:59:11;;;;;;;1.33;0.90;;;6.20;90.70;;;;;;5093544;28;20111;-79
2020/12/24 08:01:37;;;;;;;4.00;3.43;;;6.20;90.50;;;;;;5109933;28;20115;-79
2020/12/24 08:04:05;;;;;;;2.43;1.77;;;6.20;90.80;;;;;;5098918;28;20107;-78
2020/12/24 08:06:35;;;;;;;3.97;2.90;;;6.00;90.40;;;;;;5091159;28;20028;-78
2020/12/24 08:09:08;;;;;;;6.37;4.87;;;5.80;90.50;;;;;;5087831;28;20360;-78
2020/12/24 08:11:34;;;;;;;;;;;5.80;90.60;;;;;;5092744;28;20479;-77
2020/12/24 08:13:59;;;;;;;6.33;4.33;;;5.80;90.60;;;;;;5093772;28;19908;-78
2020/12/24 08:16:27;;;;;;;3.93;2.77;;;5.80;90.80;;;;;;5107907;28;20035;-78
2020/12/24 08:18:59;;;;;;;12.27;8.00;;;6.00;90.70;;;;;;5108888;28;20047;-78
2020/12/24 08:21:35;;;;;;;4.77;2.40;;;6.00;90.90;;;;;;5075494;28;20032;-78
2020/12/24 08:24:05;;;;;;;1.83;1.30;;;6.00;90.80;;;;;;5093051;28;20023;-76
2020/12/24 08:26:32;;;;;;;6.00;4.47;;;5.90;90.40;;;;;;5111474;28;20058;-77
2020/12/24 08:29:01;;;;;;;2.63;1.40;;;5.70;90.50;;;;;;5107904;28;20032;-78
2020/12/24 08:31:29;;;;;;;6.73;5.07;;;5.60;90.60;;;;;;5109185;28;20032;-77
2020/12/24 08:33:55;;;;;;;3.63;3.33;;;5.50;90.90;;;;;;5091887;28;20106;-77
2020/12/24 08:36:26;;;;;;;7.33;4.27;;;5.50;90.90;;;;;;5110369;28;20499;-77
2020/12/24 08:39:07;;;;;;;11.17;6.73;;;5.50;91.00;;;;;;5089646;28;20035;-78
2020/12/24 08:41:34;;;;;;;21.70;11.27;;;5.70;91.00;;;;;;5091169;28;20023;-78
2020/12/24 08:44:03;;;;;;;8.03;4.17;;;5.70;91.10;;;;;;5109244;28;20043;-78
2020/12/24 08:46:28;;;;;;;9.87;6.30;;;5.70;91.00;;;;;;5109099;28;20490;-78
2020/12/24 08:48:54;;;;;;;6.83;3.60;;;5.50;90.80;;;;;;5075857;28;20071;-78
2020/12/24 08:51:20;;;;;;;2.23;1.40;;;5.50;90.90;;;;;;5071145;28;20079;-78
2020/12/24 08:53:46;;;;;;;5.23;3.13;;;5.50;91.00;;;;;;5098575;28;20028;-77
2020/12/24 08:56:15;;;;;;;7.30;4.50;;;5.50;90.90;;;;;;5111461;28;20512;-79
2020/12/24 08:58:52;;;;;;;5.50;3.40;;;5.50;90.90;;;;;;5107711;28;20028;-79
2020/12/24 09:01:19;;;;;;;8.67;5.60;;;5.50;90.90;;;;;;5110500;28;20063;-78
2020/12/24 09:03:45;;;;;;;11.43;7.43;;;5.50;91.00;;;;;;5071720;28;20032;-78
2020/12/24 09:06:16;;;;;;;8.63;6.20;;;5.80;91.10;;;;;;5075893;28;20478;-79
2020/12/24 09:08:49;;;;;;;13.77;8.17;;;6.00;91.10;;;;;;5109802;28;20027;-79
2020/12/24 09:11:28;;;;;;;3.67;2.90;;;6.20;91.20;;;;;;5081107;28;20040;-77
2020/12/24 09:14:02;;;;;;;3.97;2.83;;;6.10;90.80;;;;;;5066568;28;20477;-79
2020/12/24 09:16:31;;;;;;;6.30;3.80;;;6.10;90.50;;;;;;5064850;28;20051;-78
2020/12/24 09:19:16;;;;;;;10.33;6.80;;;6.10;90.40;;;;;;5083536;28;20142;-78
2020/12/24 09:21:56;;;;;;;2.03;1.20;;;6.20;90.60;;;;;;5092068;28;20417;-80
2020/12/24 09:24:23;;;;;;;9.07;6.60;;;6.10;89.90;;;;;;5089564;28;20043;-78
2020/12/24 09:26:54;;;;;;;12.80;9.00;;;6.10;90.10;;;;;;5055025;28;20028;-78
2020/12/24 09:29:22;;;;;;;15.73;10.10;;;6.30;90.50;;;;;;5091476;28;20020;-76
2020/12/24 09:31:57;;;;;;;9.90;6.17;;;6.60;90.60;;;;;;5092280;28;20034;-76
2020/12/24 09:34:23;;;;;;;10.80;7.60;;;6.60;90.30;;;;;;5091872;28;20019;-77
2020/12/24 09:36:49;;;;;;;17.50;10.87;;;6.70;90.40;;;;;;5087994;28;20100;-76
2020/12/24 09:39:16;;;;;;;14.90;10.10;;;6.80;90.50;;;;;;5090805;28;20114;-76
2020/12/24 09:41:46;;;;;;;6.47;4.37;;;6.70;90.20;;;;;;5106680;28;20046;-77
2020/12/24 09:44:12;;;;;;;13.97;9.00;;;6.70;90.10;;;;;;5104926;28;20032;-78
2020/12/24 09:46:38;;;;;;;22.43;14.53;;;6.60;90.10;;;;;;5091640;28;20023;-77
2020/12/24 09:49:05;;;;;;;6.40;4.43;;;6.60;90.10;;;;;;5105083;28;20035;-76
2020/12/24 09:51:32;;;;;;;14.40;8.50;;;6.70;90.00;;;;;;5101252;28;20123;-77
2020/12/24 09:53:58;;;;;;;13.53;8.23;;;6.60;89.70;;;;;;5087501;28;20016;-82
2020/12/24 09:56:24;;;;;;;15.50;9.80;;;6.40;89.60;;;;;;5101683;28;20108;-78
2020/12/24 09:58:49;;;;;;;10.90;6.50;;;6.40;89.70;;;;;;5086766;28;20106;-78
2020/12/24 10:01:16;;;;;;;12.00;6.67;;;6.50;89.90;;;;;;5076138;28;20027;-78
2020/12/24 10:03:42;;;;;;;15.73;9.13;;;6.40;89.80;;;;;;5111416;28;20080;-78
2020/12/24 10:06:08;;;;;;;13.83;8.60;;;6.40;90.00;;;;;;5080993;28;20030;-78
2020/12/24 10:08:34;;;;;;;15.23;10.33;;;6.40;89.50;;;;;;5096135;28;20023;-78
2020/12/24 10:11:00;;;;;;;8.87;5.73;;;6.50;89.70;;;;;;5091662;28;20032;-79
2020/12/24 10:13:25;;;;;;;16.33;10.43;;;6.50;89.20;;;;;;5075559;28;20031;-79
2020/12/24 10:15:51;;;;;;;26.57;16.80;;;6.50;89.50;;;;;;5106585;28;20031;-79
2020/12/24 10:18:16;;;;;;;21.33;14.37;;;6.70;90.00;;;;;;5093078;28;20651;-77
2020/12/24 10:20:42;;;;;;;19.13;13.20;;;6.80;89.10;;;;;;5077540;28;20472;-79
2020/12/24 10:23:10;;;;;;;15.43;9.13;;;6.90;89.20;;;;;;5095920;28;20034;-79
2020/12/24 10:25:39;;;;;;;7.93;5.43;;;6.90;88.90;;;;;;5093640;28;20020;-79
2020/12/24 10:28:06;;;;;;;11.60;7.33;;;6.90;88.60;;;;;;5112843;28;20028;-78
2020/12/24 10:30:32;;;;;;;4.97;4.10;;;6.80;88.50;;;;;;5091105;28;20085;-79
2020/12/24 10:32:57;;;;;;;14.10;9.83;;;6.80;88.10;;;;;;5078355;28;20038;-78
2020/12/24 10:35:23;;;;;;;11.20;6.83;;;6.80;88.40;;;;;;5095925;28;20114;-79
2020/12/24 10:37:49;;;;;;;7.90;5.50;;;6.90;88.10;;;;;;5069031;28;20028;-79
2020/12/24 10:40:14;;;;;;;11.00;5.63;;;7.00;88.10;;;;;;5096400;28;20039;-79
2020/12/24 10:42:40;;;;;;;9.23;6.77;;;7.10;87.40;;;;;;5113140;28;20039;-80
2020/12/24 10:45:07;;;;;;;10.80;7.57;;;7.10;87.70;;;;;;5079772;28;20028;-80
2020/12/24 10:47:33;;;;;;;12.13;8.13;;;7.30;87.60;;;;;;5077874;28;20494;-80
2020/12/24 10:49:59;;;;;;;9.47;6.57;;;7.30;87.30;;;;;;5086472;28;20019;-79
2020/12/24 10:52:24;;;;;;;18.73;11.20;;;7.40;86.80;;;;;;5091010;28;20476;-79
2020/12/24 10:54:50;;;;;;;11.53;8.20;;;7.40;87.10;;;;;;5078460;28;20112;-79
2020/12/24 10:57:16;;;;;;;14.03;9.17;;;7.40;86.80;;;;;;5111593;28;21091;-79
2020/12/24 10:59:42;;;;;;;9.57;6.17;;;7.40;86.80;;;;;;5109436;28;20020;-78
2020/12/24 11:02:08;;;;;;;13.23;8.80;;;7.50;86.70;;;;;;5106463;28;20053;-78
2020/12/24 11:04:34;;;;;;;15.17;8.93;;;7.60;86.60;;;;;;5105627;28;20023;-78
2020/12/24 11:06:59;;;;;;;14.27;8.73;;;7.60;86.60;;;;;;5064956;28;20039;-80
2020/12/24 11:09:25;;;;;;;9.73;5.63;;;7.60;86.30;;;;;;5094170;28;20044;-79
2020/12/24 11:11:50;;;;;;;8.90;4.87;;;7.60;85.90;;;;;;5086682;28;20479;-78
2020/12/24 11:14:16;;;;;;;8.23;5.20;;;7.50;85.50;;;;;;5091588;28;20060;-78
2020/12/24 11:16:42;;;;;;;9.30;6.03;;;7.40;85.60;;;;;;5089460;28;20399;-77
2020/12/24 11:19:07;;;;;;;12.73;6.80;;;7.30;85.80;;;;;;5080757;28;20043;-80
2020/12/24 11:21:34;;;;;;;9.50;6.10;;;7.20;86.10;;;;;;5087401;28;20119;-76
2020/12/24 11:24:06;;;;;;;13.53;8.67;;;7.30;86.50;;;;;;5095244;28;20050;-76
2020/12/24 11:26:36;;;;;;;18.73;8.95;;;7.30;86.60;;;;;;5093426;28;20360;-77
2020/12/24 11:29:04;;;;;;;18.70;9.30;;;7.30;86.60;;;;;;5100420;28;20107;-77
2020/12/24 11:31:37;;;;;;;20.07;12.50;;;7.30;86.80;;;;;;5094465;28;20039;-77
2020/12/24 11:34:03;;;;;;;21.55;11.77;;;7.30;87.20;;;;;;5093545;28;20019;-79
2020/12/24 11:36:29;;;;;;;17.30;8.53;;;7.40;87.40;;;;;;5094543;28;20055;-79
2020/12/24 11:38:56;;;;;;;13.43;7.97;;;7.50;87.10;;;;;;5112002;28;20062;-79
2020/12/24 11:41:23;;;;;;;18.53;9.23;;;7.50;86.80;;;;;;5114856;28;20039;-78
2020/12/24 11:43:50;;;;;;;15.17;8.33;;;7.60;87.20;;;;;;5096255;28;20024;-77
2020/12/24 11:46:17;;;;;;;15.50;9.00;;;7.50;86.80;;;;;;5109906;28;20079;-79
2020/12/24 11:48:43;;;;;;;16.53;8.70;;;7.60;86.90;;;;;;5098606;28;20036;-79
2020/12/24 11:51:10;;;;;;;22.97;9.77;;;7.60;86.80;;;;;;5073043;28;20575;-78
2020/12/24 11:53:37;;;;;;;37.63;19.73;;;7.70;86.80;;;;;;5073947;28;20032;-78
2020/12/24 11:56:04;;;;;;;20.60;11.10;;;7.90;88.10;;;;;;5102618;28;20100;-78
2020/12/24 11:58:29;;;;;;;23.97;12.47;;;8.10;87.40;;;;;;5093392;28;20026;-78
2020/12/24 12:00:55;;;;;;;16.47;5.47;;;8.00;86.60;;;;;;5079324;28;20032;-79
2020/12/24 12:03:21;;;;;;;15.97;9.57;;;8.00;86.30;;;;;;5097220;28;20161;-80
2020/12/24 12:05:47;;;;;;;14.37;7.50;;;7.90;85.80;;;;;;5094379;28;20035;-77
2020/12/24 12:08:12;;;;;;;17.03;8.13;;;7.90;86.30;;;;;;5078397;28;20463;-78
2020/12/24 12:10:38;;;;;;;13.57;6.93;;;7.90;86.40;;;;;;5074918;28;20082;-78
2020/12/24 12:13:04;;;;;;;14.07;7.33;;;8.00;86.50;;;;;;5083918;28;20036;-77
2020/12/24 12:15:30;;;;;;;11.63;5.93;;;7.90;86.20;;;;;;5089652;28;20026;-78
2020/12/24 12:17:55;;;;;;;19.10;10.70;;;7.80;85.60;;;;;;5055942;28;20048;-79
2020/12/24 12:20:21;;;;;;;7.70;4.70;;;7.90;86.20;;;;;;5064093;28;20031;-78
2020/12/24 12:22:48;;;;;;;14.50;8.63;;;7.90;86.10;;;;;;5092991;28;20126;-78
2020/12/24 12:25:14;;;;;;;19.73;11.47;;;8.00;86.30;;;;;;5088175;28;20020;-78
2020/12/24 12:27:40;;;;;;;18.70;10.53;;;8.00;86.20;;;;;;5099398;28;20456;-78
2020/12/24 12:30:06;;;;;;;19.77;10.27;;;8.00;86.20;;;;;;5074192;28;20115;-78
2020/12/24 12:32:32;;;;;;;19.83;10.17;;;8.00;85.90;;;;;;5084755;28;20467;-79
2020/12/24 12:34:57;;;;;;;18.27;9.70;;;8.00;85.90;;;;;;5085735;28;20071;-78
2020/12/24 12:37:23;;;;;;;19.57;10.70;;;8.00;85.70;;;;;;5084690;28;20051;-78
2020/12/24 12:39:51;;;;;;;22.37;12.90;;;8.00;86.00;;;;;;5087714;28;20024;-79
2020/12/24 12:42:18;;;;;;;40.10;20.77;;;8.00;86.00;;;;;;5092106;28;20035;-79
2020/12/24 12:44:44;;;;;;;25.80;14.33;;;8.00;86.30;;;;;;5089967;28;20547;-79
2020/12/24 12:47:10;;;;;;;28.20;14.33;;;8.00;86.20;;;;;;5082076;28;20028;-79
2020/12/24 12:49:35;;;;;;;34.57;18.00;;;8.10;86.60;;;;;;5091175;28;20028;-78
2020/12/24 12:52:05;;;;;;;28.67;13.67;;;8.00;86.20;;;;;;5099957;28;20038;-79